createdAt,value
2022-08-20T00:02:42.873Z,99924.63
2022-08-20T00:05:56.666Z,99931.06
2022-08-20T00:09:04.024Z,99928.59
2022-08-20T00:12:11.511Z,99936.38
2022-08-20T00:15:22.211Z,99941.00
2022-08-20T00:18:28.764Z,99958.44
2022-08-20T00:21:35.076Z,99953.97
2022-08-20T00:24:40.952Z,99944.38
2022-08-20T00:27:46.953Z,99937.44
2022-08-20T00:30:53.127Z,99940.13
2022-08-20T00:33:59.484Z,99937.50
2022-08-20T00:37:05.900Z,99918.91
2022-08-20T00:40:22.328Z,99902.13
2022-08-20T00:43:48.051Z,99900.06
2022-08-20T00:46:57.053Z,99893.63
2022-08-20T00:50:04.458Z,99904.09
2022-08-20T00:53:12.026Z,99910.53
2022-08-20T00:56:19.577Z,99912.91
2022-08-20T00:59:31.537Z,99914.47
2022-08-20T01:03:09.092Z,99897.25
2022-08-20T01:06:15.953Z,99897.25
2022-08-20T01:09:49.891Z,99883.56
2022-08-20T01:12:55.659Z,99875.75
2022-08-20T01:16:18.315Z,99873.38
2022-08-20T01:19:38.993Z,99880.38
2022-08-20T01:23:31.218Z,99846.56
2022-08-20T01:26:44.595Z,99813.81
2022-08-20T01:29:54.977Z,99817.00
2022-08-20T01:33:04.314Z,99816.44
2022-08-20T01:36:12.835Z,99803.53
2022-08-20T01:39:25.294Z,99800.25
2022-08-20T01:42:52.714Z,99807.75
2022-08-20T01:46:16.955Z,99821.41
2022-08-20T01:49:37.374Z,99826.75
2022-08-20T01:53:11.513Z,99828.09
2022-08-20T01:56:23.473Z,99834.19
2022-08-20T01:59:32.214Z,99831.25
2022-08-20T02:02:39.654Z,99835.50
2022-08-20T02:05:46.772Z,99847.00
2022-08-20T02:09:03.615Z,99855.78
2022-08-20T02:12:13.375Z,99843.88
2022-08-20T02:15:30.792Z,99861.22
2022-08-20T02:18:44.030Z,99863.41
2022-08-20T02:21:53.429Z,99852.94
2022-08-20T02:24:59.251Z,99873.56
2022-08-20T02:28:08.617Z,99868.47
2022-08-20T02:31:14.454Z,99870.31
2022-08-20T02:34:22.907Z,99881.09
2022-08-20T02:37:29.009Z,99893.59
2022-08-20T02:40:35.852Z,99893.66
2022-08-20T02:43:43.435Z,99900.41
2022-08-20T02:46:52.372Z,99896.97
2022-08-20T02:50:01.334Z,99900.22
2022-08-20T02:53:09.294Z,99894.31
2022-08-20T02:56:17.413Z,99893.72
2022-08-20T02:59:23.742Z,99909.31
2022-08-20T03:02:29.448Z,99916.44
2022-08-20T03:05:36.065Z,99925.34
2022-08-20T03:08:44.716Z,99929.09
2022-08-20T03:11:51.854Z,99909.03
2022-08-20T03:14:58.579Z,99889.00
2022-08-20T03:18:04.713Z,99902.16
2022-08-20T03:21:10.836Z,99910.78
2022-08-20T03:24:21.373Z,99912.84
2022-08-20T03:27:32.643Z,99919.88
2022-08-20T03:30:46.647Z,99934.63
2022-08-20T03:33:54.521Z,99933.66
2022-08-20T03:37:02.736Z,99936.91
2022-08-20T03:40:17.838Z,99930.28
2022-08-20T03:43:26.086Z,99932.22
2022-08-20T03:46:33.216Z,99937.06
2022-08-20T03:49:41.737Z,99949.16
2022-08-20T03:52:49.496Z,99931.78
2022-08-20T03:56:00.488Z,99932.59
2022-08-20T03:59:24.379Z,99911.19
2022-08-20T04:02:30.411Z,99895.59
2022-08-20T04:05:41.245Z,99888.31
2022-08-20T04:08:47.118Z,99869.25
2022-08-20T04:12:00.760Z,99871.00
2022-08-20T04:15:20.940Z,99854.13
2022-08-20T04:18:27.883Z,99798.72
2022-08-20T04:21:34.513Z,99753.12
2022-08-20T04:24:41.957Z,99748.84
2022-08-20T04:27:47.949Z,99802.13
2022-08-20T04:31:01.115Z,99856.16
2022-08-20T04:34:09.919Z,99884.94
2022-08-20T04:37:17.531Z,99905.56
2022-08-20T04:40:43.535Z,99897.03
2022-08-20T04:43:49.433Z,99893.16
2022-08-20T04:46:55.844Z,99898.59
2022-08-20T04:50:02.147Z,99897.09
2022-08-20T04:53:11.252Z,99887.75
2022-08-20T04:56:17.051Z,99875.97
2022-08-20T04:59:43.007Z,99889.19
2022-08-20T05:02:48.890Z,99890.06
2022-08-20T05:05:55.218Z,99888.75
2022-08-20T05:09:02.191Z,99897.13
2022-08-20T05:12:08.570Z,99904.16
2022-08-20T05:15:14.010Z,99910.75
2022-08-20T05:18:24.775Z,99920.47
2022-08-20T05:21:31.704Z,99920.78
2022-08-20T05:24:37.791Z,99926.59
2022-08-20T05:27:47.650Z,99938.91
2022-08-20T05:31:06.797Z,99943.22
2022-08-20T05:34:14.817Z,99961.47
2022-08-20T05:37:22.596Z,99976.34
2022-08-20T05:40:29.775Z,99977.47
2022-08-20T05:43:36.616Z,99990.19
2022-08-20T05:46:46.076Z,99991.06
2022-08-20T05:49:52.919Z,99978.84
2022-08-20T05:52:58.707Z,99981.06
2022-08-20T05:56:05.481Z,99972.53
2022-08-20T05:59:13.134Z,99963.50
2022-08-20T06:02:39.508Z,99968.31
2022-08-20T06:05:47.336Z,99990.38
2022-08-20T06:08:56.095Z,99989.31
2022-08-20T06:12:10.496Z,100003.34
2022-08-20T06:15:18.318Z,99981.69
2022-08-20T06:18:28.365Z,99982.00
2022-08-20T06:21:35.680Z,99987.94
2022-08-20T06:24:41.581Z,99978.81
2022-08-20T06:27:49.177Z,99976.94
2022-08-20T06:30:57.401Z,99983.63
2022-08-20T06:34:05.276Z,99989.34
2022-08-20T06:37:23.002Z,99985.31
2022-08-20T06:40:36.655Z,99974.00
2022-08-20T06:43:43.946Z,99983.31
2022-08-20T06:46:51.736Z,99994.13
2022-08-20T06:50:00.815Z,99981.81
2022-08-20T06:53:12.772Z,99982.62
2022-08-20T06:56:20.635Z,99991.19
2022-08-20T06:59:29.717Z,100007.78
2022-08-20T07:02:39.137Z,100016.13
2022-08-20T07:05:47.679Z,100010.53
2022-08-20T07:08:55.560Z,100017.59
2022-08-20T07:12:04.296Z,100011.03
2022-08-20T07:15:14.278Z,100010.88
2022-08-20T07:18:28.496Z,100018.94
2022-08-20T07:21:39.117Z,100020.03
2022-08-20T07:24:49.165Z,100015.50
2022-08-20T07:28:05.179Z,100007.72
2022-08-20T07:31:32.315Z,100002.87
2022-08-20T07:34:44.771Z,100012.03
2022-08-20T07:37:53.675Z,100014.59
2022-08-20T07:41:15.001Z,100006.37
2022-08-20T07:44:31.019Z,100000.50
2022-08-20T07:47:43.319Z,100015.53
2022-08-20T07:50:52.321Z,100010.16
2022-08-20T07:54:02.852Z,100019.03
2022-08-20T07:57:14.594Z,100020.88
2022-08-20T08:00:24.953Z,100020.34
2022-08-20T08:03:40.837Z,100021.47
2022-08-20T08:07:01.671Z,100023.13
2022-08-20T08:10:12.629Z,100029.59
2022-08-20T08:13:20.063Z,100033.66
2022-08-20T08:16:28.568Z,100045.13
2022-08-20T08:19:40.347Z,100045.13
2022-08-20T08:22:49.080Z,100044.78
2022-08-20T08:25:58.228Z,100046.28
2022-08-20T08:29:10.218Z,100036.91
2022-08-20T08:32:17.256Z,100036.91
2022-08-20T08:35:24.628Z,100027.47
2022-08-20T08:38:34.699Z,100020.78
2022-08-20T08:41:52.597Z,100030.41
2022-08-20T08:45:02.038Z,100031.84
2022-08-20T08:48:09.542Z,100026.78
2022-08-20T08:51:50.168Z,100028.44
2022-08-20T08:55:02.734Z,100031.75
2022-08-20T08:58:16.879Z,100022.38
2022-08-20T09:01:54.616Z,100013.78
2022-08-20T09:05:05.078Z,99994.72
2022-08-20T09:08:17.697Z,99995.25
2022-08-20T09:11:26.433Z,99999.00
2022-08-20T09:14:34.468Z,100000.34
2022-08-20T09:17:42.329Z,99999.34
2022-08-20T09:20:50.710Z,99997.75
2022-08-20T09:23:58.168Z,99992.63
2022-08-20T09:27:05.942Z,99990.53
2022-08-20T09:30:13.868Z,99983.13
2022-08-20T09:33:24.137Z,99981.38
2022-08-20T09:36:33.103Z,99984.53
2022-08-20T09:39:42.137Z,99978.69
2022-08-20T09:42:49.420Z,99976.03
2022-08-20T09:45:57.199Z,99974.66
2022-08-20T09:49:03.630Z,99976.59
2022-08-20T09:55:23.899Z,99985.34
2022-08-20T09:58:53.849Z,99993.50
2022-08-20T10:02:01.038Z,99999.69
2022-08-20T10:05:09.722Z,100008.88
2022-08-20T10:08:20.119Z,100015.59
2022-08-20T10:11:27.737Z,100017.78
2022-08-20T10:14:38.428Z,100027.53
2022-08-20T10:17:48.059Z,100022.34
2022-08-20T10:20:55.519Z,100022.38
2022-08-20T10:24:03.490Z,100021.56
2022-08-20T10:27:10.796Z,100021.53
2022-08-20T10:30:18.866Z,100022.91
2022-08-20T10:33:26.289Z,100017.22
2022-08-20T10:36:34.108Z,100001.59
2022-08-20T10:39:48.067Z,100002.16
2022-08-20T10:42:57.860Z,100002.69
2022-08-20T10:46:06.629Z,100002.72
2022-08-20T10:49:14.719Z,100000.56
2022-08-20T10:52:22.791Z,100000.03
2022-08-20T10:55:30.795Z,99990.31
2022-08-20T10:58:41.319Z,100007.84
2022-08-20T11:01:48.912Z,100004.88
2022-08-20T11:04:57.074Z,100015.38
2022-08-20T11:08:07.295Z,100009.44
2022-08-20T11:11:14.833Z,100012.09
2022-08-20T11:14:21.899Z,100010.22
2022-08-20T11:17:37.241Z,100010.94
2022-08-20T11:20:46.936Z,100017.66
2022-08-20T11:23:54.434Z,100024.41
2022-08-20T11:27:02.975Z,100019.44
2022-08-20T11:30:14.052Z,100005.66
2022-08-20T11:33:21.113Z,100010.88
2022-08-20T11:36:33.033Z,100006.53
2022-08-20T11:39:41.816Z,100013.34
2022-08-20T11:43:13.206Z,100011.75
2022-08-20T11:46:19.194Z,100008.56
2022-08-20T11:49:27.173Z,99997.03
2022-08-20T11:52:34.814Z,99998.03
2022-08-20T11:55:43.614Z,99998.00
2022-08-20T11:58:51.336Z,99978.91
2022-08-20T12:02:03.708Z,99987.94
2022-08-20T12:05:12.694Z,99984.56
2022-08-20T12:08:26.968Z,99982.78
2022-08-20T12:11:38.798Z,99980.13
2022-08-20T12:14:47.300Z,99977.75
2022-08-20T12:18:01.054Z,99980.53
2022-08-20T12:21:11.114Z,99981.66
2022-08-20T12:24:19.254Z,99972.22
2022-08-20T12:27:30.671Z,99954.91
2022-08-20T12:30:37.781Z,99963.59
2022-08-20T12:33:44.939Z,99957.81
2022-08-20T12:36:51.808Z,99961.19
2022-08-20T12:40:03.051Z,99967.94
2022-08-20T12:43:12.233Z,99954.22
2022-08-20T12:46:20.729Z,99959.53
2022-08-20T12:49:28.161Z,99954.81
2022-08-20T12:52:36.874Z,99953.06
2022-08-20T12:55:44.066Z,99940.63
2022-08-20T12:58:51.517Z,99928.38
2022-08-20T13:01:59.937Z,99918.19
2022-08-20T13:05:23.754Z,99915.59
2022-08-20T13:08:31.618Z,99910.09
2022-08-20T13:11:40.052Z,99902.69
2022-08-20T13:14:47.538Z,99901.72
2022-08-20T13:17:58.917Z,99905.69
2022-08-20T13:21:04.919Z,99906.44
2022-08-20T13:24:13.097Z,99909.91
2022-08-20T13:27:25.019Z,99905.78
2022-08-20T13:30:34.302Z,99907.09
2022-08-20T13:33:42.121Z,99908.97
2022-08-20T13:36:50.752Z,99912.22
2022-08-20T13:39:59.311Z,99909.00
2022-08-20T13:43:07.580Z,99908.78
2022-08-20T13:46:32.177Z,99901.09
2022-08-20T13:49:39.987Z,99898.78
2022-08-20T13:52:46.854Z,99890.53
2022-08-20T13:55:54.441Z,99888.50
2022-08-20T13:59:02.174Z,99884.78
2022-08-20T14:02:10.164Z,99879.28
2022-08-20T14:05:19.378Z,99877.00
2022-08-20T14:08:27.668Z,99880.66
2022-08-20T14:11:35.845Z,99879.66
2022-08-20T14:14:43.492Z,99864.78
2022-08-20T14:17:52.833Z,99867.44
2022-08-20T14:21:01.020Z,99857.44
2022-08-20T14:24:09.553Z,99866.38
2022-08-20T14:27:30.701Z,99864.34
2022-08-20T14:30:43.555Z,99867.16
2022-08-20T14:33:52.524Z,99880.25
2022-08-20T14:36:59.230Z,99891.03
2022-08-20T14:40:20.374Z,99882.88
2022-08-20T14:43:30.752Z,99895.44
2022-08-20T14:46:42.385Z,99888.22
2022-08-20T14:49:51.955Z,99891.16
2022-08-20T14:53:00.192Z,99881.41
2022-08-20T14:56:27.359Z,99881.56
2022-08-20T14:59:34.143Z,99886.69
2022-08-20T15:02:42.952Z,99895.00
2022-08-20T15:05:50.382Z,99898.03
2022-08-20T15:08:57.312Z,99911.06
2022-08-20T15:12:06.733Z,99905.72
2022-08-20T15:15:16.173Z,99906.66
2022-08-20T15:18:25.807Z,99900.50
2022-08-20T15:21:44.988Z,99898.09
2022-08-20T15:25:02.179Z,99900.44
2022-08-20T15:28:11.385Z,99898.09
2022-08-20T15:31:17.360Z,99887.13
2022-08-20T15:34:23.268Z,99883.31
2022-08-20T15:37:29.037Z,99878.50
2022-08-20T15:40:36.905Z,99876.16
2022-08-20T15:43:43.333Z,99875.66
2022-08-20T15:46:49.307Z,99881.22
2022-08-20T15:50:14.382Z,99881.97
2022-08-20T15:53:32.059Z,99886.19
2022-08-20T15:57:22.635Z,99889.78
2022-08-20T16:01:24.208Z,99894.44
2022-08-20T16:04:55.852Z,99911.06
2022-08-20T16:08:27.579Z,99936.00
2022-08-20T16:11:47.337Z,99919.84
2022-08-20T16:15:15.532Z,99918.00
2022-08-20T16:18:27.453Z,99926.69
2022-08-20T16:21:43.932Z,99923.72
2022-08-20T16:24:51.513Z,99920.47
2022-08-20T16:28:45.935Z,99918.31
2022-08-20T16:32:22.172Z,99933.16
2022-08-20T16:35:44.753Z,99937.47
2022-08-20T16:39:04.953Z,99945.53
2022-08-20T16:42:13.814Z,99945.00
2022-08-20T16:45:45.601Z,99951.44
2022-08-20T16:49:00.823Z,99962.19
2022-08-20T16:52:08.819Z,99956.25
2022-08-20T16:55:16.858Z,99957.06
2022-08-20T16:58:24.439Z,99970.19
2022-08-20T17:01:31.182Z,99973.41
2022-08-20T17:04:58.699Z,99976.59
2022-08-20T17:08:09.822Z,99972.28
2022-08-20T17:11:25.712Z,99978.72
2022-08-20T17:14:33.894Z,99989.47
2022-08-20T17:17:40.355Z,99980.59
2022-08-20T17:20:53.534Z,99975.47
2022-08-20T17:24:39.094Z,99968.41
2022-08-20T17:27:48.775Z,99972.69
2022-08-20T17:30:58.050Z,99968.59
2022-08-20T17:34:36.089Z,99980.66
2022-08-20T17:38:06.777Z,99982.75
2022-08-20T17:41:20.774Z,99985.91
2022-08-20T17:44:43.877Z,99993.66
2022-08-20T17:47:52.185Z,100001.69
2022-08-20T17:50:59.335Z,99995.69
2022-08-20T17:54:29.398Z,99997.56
2022-08-20T17:57:47.459Z,99995.91
2022-08-20T18:01:01.337Z,99992.38
2022-08-20T18:04:10.226Z,99988.28
2022-08-20T18:07:34.047Z,99985.00
2022-08-20T18:11:08.458Z,100004.03
2022-08-20T18:14:32.855Z,99991.91
2022-08-20T18:18:06.076Z,99999.94
2022-08-20T18:21:45.017Z,100006.16
2022-08-20T18:25:20.758Z,100016.31
2022-08-20T18:28:40.138Z,100009.75
2022-08-20T18:31:55.467Z,100016.94
2022-08-20T18:35:23.370Z,100029.00
2022-08-20T18:38:37.364Z,100026.50
2022-08-20T18:42:03.113Z,100020.59
2022-08-20T18:45:11.094Z,100020.84
2022-08-20T18:48:25.815Z,100027.50
2022-08-20T18:51:45.148Z,100021.00
2022-08-20T18:55:02.038Z,100027.19
2022-08-20T18:58:13.109Z,100010.53
2022-08-20T19:01:21.316Z,100015.81
2022-08-20T19:04:40.051Z,100017.38
2022-08-20T19:07:58.636Z,100023.25
2022-08-20T19:11:45.617Z,100023.50
2022-08-20T19:15:32.396Z,100014.09
2022-08-20T19:18:58.860Z,100011.66
2022-08-20T19:22:07.369Z,100014.03
2022-08-20T19:25:24.300Z,100007.28
2022-08-20T19:28:38.178Z,100000.56
2022-08-20T19:31:46.288Z,100004.22
2022-08-20T19:35:05.099Z,100002.25
2022-08-20T19:38:20.194Z,99985.84
2022-08-20T19:41:36.928Z,99989.50
2022-08-20T19:45:05.217Z,99991.06
2022-08-20T19:48:32.847Z,99985.37
2022-08-20T19:52:19.577Z,99992.31
2022-08-20T19:55:37.412Z,99994.34
2022-08-20T19:58:45.314Z,99995.66
2022-08-20T20:02:20.440Z,99990.72
2022-08-20T20:05:30.708Z,99990.66
2022-08-20T20:08:41.855Z,99990.56
2022-08-20T20:12:21.507Z,99986.72
2022-08-20T20:15:35.801Z,99981.62
2022-08-20T20:18:43.211Z,99985.09
2022-08-20T20:22:20.208Z,99990.72
2022-08-20T20:25:31.876Z,99994.13
2022-08-20T20:28:48.832Z,99989.75
2022-08-20T20:31:59.070Z,99985.94
2022-08-20T20:35:07.087Z,99983.19
2022-08-20T20:38:38.628Z,99982.03
2022-08-20T20:41:58.532Z,99984.72
2022-08-20T20:45:22.195Z,99995.34
2022-08-20T20:48:38.133Z,99986.63
2022-08-20T20:52:32.987Z,99989.00
2022-08-20T20:55:45.540Z,99988.75
2022-08-20T20:58:56.360Z,99979.56
2022-08-20T21:02:03.607Z,99977.59
2022-08-20T21:05:11.102Z,99978.91
2022-08-20T21:08:24.277Z,99979.13
2022-08-20T21:11:31.521Z,99989.03
2022-08-20T21:14:38.272Z,99989.03
2022-08-20T21:17:44.905Z,99994.37
2022-08-20T21:20:52.129Z,99996.00
2022-08-20T21:23:58.744Z,99997.31
2022-08-20T21:27:06.092Z,99997.06
2022-08-20T21:30:19.133Z,99990.56
2022-08-20T21:33:26.545Z,99991.13
2022-08-20T21:36:32.796Z,99991.88
2022-08-20T21:39:59.052Z,99995.34
2022-08-20T21:43:06.639Z,99993.63
2022-08-20T21:46:17.793Z,99987.16
2022-08-20T21:49:36.858Z,99990.88
2022-08-20T21:52:59.129Z,99981.69
2022-08-20T21:56:08.704Z,99983.47
2022-08-20T21:59:37.375Z,99988.50
2022-08-20T22:02:45.496Z,99987.44
2022-08-20T22:05:51.900Z,99983.53
2022-08-20T22:08:58.333Z,99983.97
2022-08-20T22:12:05.483Z,99986.09
2022-08-20T22:15:12.143Z,99987.72
2022-08-20T22:18:18.636Z,99987.13
2022-08-20T22:21:27.959Z,99980.63
2022-08-20T22:24:35.972Z,99987.63
2022-08-20T22:27:43.247Z,99976.34
2022-08-20T22:30:49.430Z,99979.72
2022-08-20T22:34:04.165Z,99974.16
2022-08-20T22:37:12.372Z,99971.37
2022-08-20T22:40:19.113Z,99969.19
2022-08-20T22:43:25.863Z,99961.63
2022-08-20T22:46:38.192Z,99965.13
2022-08-20T22:49:45.916Z,99980.00
2022-08-20T22:52:52.762Z,99968.72
2022-08-20T22:55:59.135Z,99961.16
2022-08-20T22:59:05.782Z,99951.75
2022-08-20T23:02:16.826Z,99955.47
2022-08-20T23:05:34.016Z,99961.78
2022-08-20T23:08:42.906Z,99964.69
2022-08-20T23:11:50.177Z,99957.72
2022-08-20T23:14:57.084Z,99955.25
2022-08-20T23:18:08.230Z,99945.84
2022-08-20T23:21:21.522Z,99947.37
2022-08-20T23:24:29.027Z,99946.78
2022-08-20T23:27:40.303Z,99936.34
2022-08-20T23:30:46.979Z,99939.47
2022-08-20T23:33:53.609Z,99948.31
2022-08-20T23:37:01.800Z,99937.03
2022-08-20T23:40:09.026Z,99943.19
2022-08-20T23:43:15.191Z,99939.16
2022-08-20T23:46:42.633Z,99943.34
2022-08-20T23:49:48.749Z,99947.75
2022-08-20T23:52:55.899Z,99952.06
2022-08-20T23:56:02.646Z,99957.06
2022-08-20T23:59:08.508Z,99959.62
